createdAt,value
2018-07-17T00:00:04.824Z,8.53
2018-07-17T00:02:34.280Z,9.53
2018-07-17T00:05:02.894Z,8.93
2018-07-17T00:07:31.496Z,9.27
2018-07-17T00:10:00.738Z,10.00
2018-07-17T00:12:30.715Z,9.73
2018-07-17T00:15:00.745Z,9.07
2018-07-17T00:17:30.644Z,9.80
2018-07-17T00:20:00.089Z,9.57
2018-07-17T00:22:29.121Z,8.97
2018-07-17T00:24:58.148Z,10.27
2018-07-17T00:27:26.715Z,8.90
2018-07-17T00:29:55.245Z,9.13
2018-07-17T00:32:23.568Z,10.13
2018-07-17T00:34:52.256Z,8.87
2018-07-17T00:37:20.788Z,9.57
2018-07-17T00:39:49.377Z,10.27
2018-07-17T00:42:17.678Z,9.90
2018-07-17T00:44:46.296Z,9.43
2018-07-17T00:47:14.848Z,9.10
2018-07-17T00:49:43.425Z,9.13
2018-07-17T00:52:12.045Z,9.47
2018-07-17T00:54:40.630Z,10.13
2018-07-17T00:57:09.235Z,10.20
2018-07-17T00:59:37.777Z,10.47
2018-07-17T01:02:11.848Z,10.33
2018-07-17T01:04:45.816Z,10.00
2018-07-17T01:07:19.858Z,9.47
2018-07-17T01:09:53.756Z,10.27
2018-07-17T01:12:21.581Z,9.13
2018-07-17T01:14:54.675Z,9.13
2018-07-17T01:17:23.751Z,9.33
2018-07-17T01:19:52.260Z,9.70
2018-07-17T01:22:20.826Z,11.30
2018-07-17T01:24:49.386Z,10.10
2018-07-17T01:27:17.657Z,9.17
2018-07-17T01:29:45.898Z,9.73
2018-07-17T01:32:14.552Z,11.03
2018-07-17T01:34:43.107Z,9.77
2018-07-17T01:37:11.725Z,9.73
2018-07-17T01:39:40.268Z,9.77
2018-07-17T01:42:08.821Z,9.83
2018-07-17T01:44:37.449Z,9.90
2018-07-17T01:47:06.052Z,10.07
2018-07-17T01:49:34.592Z,10.53
2018-07-17T01:52:03.192Z,11.27
2018-07-17T01:54:31.763Z,10.90
2018-07-17T01:57:00.046Z,10.33
2018-07-17T01:59:29.187Z,10.50
2018-07-17T02:01:58.160Z,11.67
2018-07-17T02:04:26.729Z,10.70
2018-07-17T02:06:55.242Z,11.53
2018-07-17T02:09:23.765Z,11.03
2018-07-17T02:11:52.357Z,10.63
2018-07-17T02:14:20.781Z,11.63
2018-07-17T02:16:49.363Z,11.90
2018-07-17T02:19:17.946Z,11.63
2018-07-17T02:21:46.531Z,11.63
2018-07-17T02:24:15.115Z,10.43
2018-07-17T02:26:43.699Z,10.73
2018-07-17T02:29:12.207Z,11.73
2018-07-17T02:31:40.739Z,11.03
2018-07-17T02:34:09.317Z,10.23
2018-07-17T02:36:37.893Z,10.87
2018-07-17T02:39:07.540Z,10.80
2018-07-17T02:41:36.112Z,10.37
2018-07-17T02:44:04.691Z,10.30
2018-07-17T02:46:33.287Z,10.40
2018-07-17T02:49:01.824Z,11.47
2018-07-17T02:51:30.154Z,10.70
2018-07-17T02:53:59.444Z,10.00
2018-07-17T02:56:29.120Z,11.57
2018-07-17T02:58:58.139Z,11.17
2018-07-17T03:01:26.710Z,10.73
2018-07-17T03:03:55.330Z,11.00
2018-07-17T03:06:23.897Z,11.47
2018-07-17T03:08:52.485Z,11.10
2018-07-17T03:11:21.062Z,11.50
2018-07-17T03:13:49.663Z,10.87
2018-07-17T03:16:18.275Z,12.37
2018-07-17T03:18:46.804Z,10.17
2018-07-17T03:21:15.380Z,10.30
2018-07-17T03:23:43.960Z,11.53
2018-07-17T03:26:12.516Z,10.93
2018-07-17T03:28:40.814Z,11.00
2018-07-17T03:31:09.416Z,11.23
2018-07-17T03:33:37.979Z,11.07
2018-07-17T03:36:06.573Z,11.13
2018-07-17T03:38:35.135Z,11.23
2018-07-17T03:41:03.752Z,11.87
2018-07-17T03:43:32.346Z,12.03
2018-07-17T03:46:00.930Z,11.50
2018-07-17T03:48:30.612Z,11.73
2018-07-17T03:51:00.566Z,11.70
2018-07-17T03:53:29.188Z,11.57
2018-07-17T03:55:58.235Z,11.93
2018-07-17T03:58:26.866Z,12.17
2018-07-17T04:00:55.179Z,11.83
2018-07-17T04:03:23.760Z,12.07
2018-07-17T04:05:52.502Z,12.03
2018-07-17T04:08:21.096Z,11.43
2018-07-17T04:10:49.723Z,12.37
2018-07-17T04:13:18.390Z,11.53
2018-07-17T04:15:46.937Z,11.63
2018-07-17T04:18:15.253Z,12.33
2018-07-17T04:20:43.865Z,11.73
2018-07-17T04:23:12.405Z,11.00
2018-07-17T04:25:41.016Z,13.83
2018-07-17T04:28:09.589Z,12.23
2018-07-17T04:30:38.191Z,11.80
2018-07-17T04:33:06.768Z,11.93
2018-07-17T04:35:35.355Z,12.80
2018-07-17T04:38:03.990Z,14.87
2018-07-17T04:40:32.324Z,12.03
2018-07-17T04:43:00.900Z,12.87
2018-07-17T04:45:30.202Z,11.87
2018-07-17T04:47:59.220Z,12.00
2018-07-17T04:50:27.835Z,12.10
2018-07-17T04:52:56.515Z,10.10
2018-07-17T04:55:25.048Z,11.40
2018-07-17T04:57:53.676Z,12.03
2018-07-17T05:00:21.977Z,11.53
2018-07-17T05:02:50.537Z,11.27
2018-07-17T05:05:19.159Z,11.57
2018-07-17T05:07:47.748Z,11.63
2018-07-17T05:10:16.297Z,12.13
2018-07-17T05:12:44.883Z,12.63
2018-07-17T05:15:13.168Z,11.27
2018-07-17T05:17:41.729Z,12.23
2018-07-17T05:20:10.084Z,11.50
2018-07-17T05:22:38.703Z,11.73
2018-07-17T05:25:07.395Z,10.30
2018-07-17T05:27:35.954Z,10.43
2018-07-17T05:30:04.850Z,10.67
2018-07-17T05:32:33.088Z,11.43
2018-07-17T05:35:01.744Z,11.03
2018-07-17T05:37:31.392Z,12.30
2018-07-17T05:40:01.335Z,10.80
2018-07-17T05:42:31.165Z,10.53
2018-07-17T05:45:00.947Z,10.90
2018-07-17T05:47:30.519Z,11.20
2018-07-17T05:50:00.239Z,10.83
2018-07-17T05:52:28.821Z,10.27
2018-07-17T05:54:57.389Z,11.80
2018-07-17T05:57:26.834Z,11.30
2018-07-17T05:59:55.134Z,10.67
2018-07-17T06:02:23.713Z,10.57
2018-07-17T06:04:52.340Z,11.00
2018-07-17T06:07:20.915Z,10.20
2018-07-17T06:09:49.453Z,9.70
2018-07-17T06:12:17.734Z,10.27
2018-07-17T06:14:46.011Z,9.43
2018-07-17T06:17:14.307Z,10.13
2018-07-17T06:19:42.860Z,9.10
2018-07-17T06:22:11.212Z,9.30
2018-07-17T06:24:39.766Z,14.30
2018-07-17T06:27:08.506Z,11.07
2018-07-17T06:29:36.782Z,9.90
2018-07-17T06:32:05.360Z,9.00
2018-07-17T06:34:33.967Z,8.37
2018-07-17T06:37:02.545Z,8.90
2018-07-17T06:39:31.173Z,9.47
2018-07-17T06:42:00.865Z,8.63
2018-07-17T06:44:30.346Z,9.67
2018-07-17T06:46:59.514Z,9.30
2018-07-17T06:49:29.331Z,9.10
2018-07-17T06:51:58.513Z,8.80
2018-07-17T06:54:27.088Z,10.70
2018-07-17T06:56:55.713Z,8.83
2018-07-17T06:59:24.284Z,8.23
2018-07-17T07:01:52.531Z,8.50
2018-07-17T07:04:21.112Z,11.03
2018-07-17T07:06:49.641Z,17.77
2018-07-17T07:09:18.239Z,12.83
2018-07-17T07:11:46.806Z,18.73
2018-07-17T07:14:15.423Z,14.97
2018-07-17T07:16:43.972Z,14.03
2018-07-17T07:19:12.555Z,11.23
2018-07-17T07:21:40.795Z,6.83
2018-07-17T07:24:09.381Z,10.00
2018-07-17T07:26:37.955Z,6.93
2018-07-17T07:29:07.170Z,8.73
2018-07-17T07:31:35.744Z,7.20
2018-07-17T07:34:04.516Z,10.00
2018-07-17T07:36:33.216Z,8.40
2018-07-17T07:39:01.750Z,8.13
2018-07-17T07:41:31.107Z,8.23
2018-07-17T07:44:00.742Z,7.53
2018-07-17T07:46:30.297Z,6.40
2018-07-17T07:48:59.240Z,6.53
2018-07-17T07:51:28.288Z,6.20
2018-07-17T07:53:56.968Z,7.73
2018-07-17T07:56:28.220Z,7.10
2018-07-17T07:58:56.858Z,6.90
2018-07-17T08:01:25.466Z,5.87
2018-07-17T08:03:54.096Z,5.67
2018-07-17T08:06:23.676Z,5.83
2018-07-17T08:08:52.394Z,6.37
2018-07-17T08:11:20.710Z,6.50
2018-07-17T08:13:49.464Z,5.90
2018-07-17T08:16:17.794Z,6.43
2018-07-17T08:18:48.470Z,5.37
2018-07-17T08:21:17.097Z,5.67
2018-07-17T08:23:45.816Z,5.55
2018-07-17T08:26:14.527Z,5.10
2018-07-17T08:28:43.144Z,4.83
2018-07-17T08:31:11.774Z,5.10
2018-07-17T08:33:40.376Z,5.17
2018-07-17T08:36:09.004Z,4.53
2018-07-17T08:38:38.042Z,4.60
2018-07-17T08:41:07.101Z,4.33
2018-07-17T08:43:35.881Z,4.92
2018-07-17T08:46:04.535Z,4.47
2018-07-17T08:48:35.243Z,4.17
2018-07-17T08:51:03.891Z,3.95
2018-07-17T08:53:32.656Z,4.42
2018-07-17T08:56:01.363Z,4.53
2018-07-17T08:58:30.717Z,3.72
2018-07-17T09:00:59.604Z,4.12
2018-07-17T09:03:28.708Z,4.40
2018-07-17T09:05:57.441Z,4.37
2018-07-17T09:08:26.749Z,4.33
2018-07-17T09:10:55.500Z,3.98
2018-07-17T09:13:24.162Z,4.70
2018-07-17T09:15:52.481Z,4.58
2018-07-17T09:18:21.103Z,4.17
2018-07-17T09:20:49.759Z,4.60
2018-07-17T09:23:18.359Z,4.75
2018-07-17T09:25:47.088Z,4.90
2018-07-17T09:28:15.500Z,4.53
2018-07-17T09:30:49.485Z,4.85
2018-07-17T09:33:18.093Z,4.67
2018-07-17T09:35:46.710Z,4.90
2018-07-17T09:38:15.380Z,4.83
2018-07-17T09:40:44.057Z,4.22
2018-07-17T09:43:12.756Z,3.87
2018-07-17T09:45:41.437Z,3.95
2018-07-17T09:48:10.060Z,4.00
2018-07-17T09:50:38.672Z,3.87
2018-07-17T09:53:07.345Z,5.58
2018-07-17T09:55:36.003Z,5.00
2018-07-17T09:58:05.204Z,3.92
2018-07-17T10:00:35.307Z,3.95
2018-07-17T10:03:04.187Z,3.80
2018-07-17T10:05:33.029Z,4.03
2018-07-17T10:08:01.682Z,3.58
2018-07-17T10:10:31.299Z,3.75
2018-07-17T10:13:00.417Z,4.17
2018-07-17T10:15:29.692Z,4.00
2018-07-17T10:17:58.401Z,3.72
2018-07-17T10:20:26.818Z,3.37
2018-07-17T10:22:55.430Z,4.28
2018-07-17T10:25:24.135Z,4.03
2018-07-17T10:27:52.451Z,3.87
2018-07-17T10:30:21.024Z,4.08
2018-07-17T10:32:49.639Z,3.70
2018-07-17T10:35:18.222Z,4.17
2018-07-17T10:37:46.868Z,4.10
2018-07-17T10:40:15.507Z,3.95
2018-07-17T10:42:44.107Z,4.80
2018-07-17T10:45:12.829Z,4.80
2018-07-17T10:47:41.554Z,4.40
2018-07-17T10:50:10.129Z,4.00
2018-07-17T10:52:38.516Z,3.83
2018-07-17T10:55:07.290Z,4.25
2018-07-17T10:57:35.988Z,4.78
2018-07-17T11:00:04.643Z,4.58
2018-07-17T11:02:33.330Z,4.25
2018-07-17T11:05:01.995Z,4.67
2018-07-17T11:07:31.387Z,4.42
2018-07-17T11:10:00.200Z,4.45
2018-07-17T11:12:29.266Z,4.03
2018-07-17T11:14:58.221Z,4.00
2018-07-17T11:17:26.849Z,4.67
2018-07-17T11:19:55.476Z,4.25
2018-07-17T11:22:24.111Z,4.20
2018-07-17T11:24:52.450Z,4.08
2018-07-17T11:27:21.044Z,3.70
2018-07-17T11:29:49.684Z,4.17
2018-07-17T11:32:18.342Z,4.62
2018-07-17T11:34:46.694Z,3.95
2018-07-17T11:37:15.453Z,4.17
2018-07-17T11:39:44.144Z,4.28
2018-07-17T11:42:12.809Z,4.58
2018-07-17T11:44:41.532Z,4.10
2018-07-17T11:47:10.295Z,4.62
2018-07-17T11:49:39.041Z,3.72
2018-07-17T11:52:07.371Z,4.00
2018-07-17T11:54:36.054Z,4.53
2018-07-17T11:57:05.108Z,4.40
2018-07-17T11:59:33.714Z,4.20
2018-07-17T12:02:02.482Z,3.83
2018-07-17T12:04:31.456Z,3.80
2018-07-17T12:07:00.364Z,4.10
2018-07-17T12:09:28.837Z,3.85
2018-07-17T12:11:58.707Z,3.65
2018-07-17T12:14:27.299Z,3.60
2018-07-17T12:16:55.989Z,3.80
2018-07-17T12:19:24.547Z,3.60
2018-07-17T12:21:53.242Z,4.40
2018-07-17T12:24:21.933Z,4.15
2018-07-17T12:26:50.575Z,4.10
2018-07-17T12:29:19.324Z,3.90
2018-07-17T12:31:47.988Z,4.00
2018-07-17T12:34:16.735Z,3.87
2018-07-17T12:36:45.306Z,3.95
2018-07-17T12:39:13.976Z,4.20
2018-07-17T12:41:42.335Z,3.90
2018-07-17T12:44:10.965Z,3.65
2018-07-17T12:46:39.839Z,4.28
2018-07-17T12:49:08.188Z,3.67
2018-07-17T12:51:36.885Z,3.85
2018-07-17T12:54:05.669Z,4.47
